Denis Sullivan — WDA2917 — position and weather

sailwx.info

Track history (hours):
 
Tides and Currents Weather Stations Pressure Air Temp Water Temp Dewpoint Dewpoint Depression Visibility Wind Speed Wind Dir Waves Ship Positions

Denis Sullivan (United States)

From her homeport of Discovery World in Milwaukee, the schooner offers educational day sails and private charters for people of all ages from May to September.

Ship's website: http://www.discoveryworld.org/denisSullivan.php

Owner: Discovery World Ltd., MILWAUKEE, WI. More information available from US FCC via Universal Licensing System and Coast Guard Vessel Documentation Center.

Last reported at 2019-Aug-30 22:28 UTC. Time now 2019-Dec-06 06:24 UTC.
Position N 45°43' W 085°15'.
Warning: this ship's position is months out of date.

Length 43 m; draft 2.6 m.

Type: Sailing vessel. MMSI: 338327000.

Date/timePositionNaut miles runAvg speedWind from/ knotsBaromVisibWave heightAir tempDewpointWater temp
2019-Aug-30 22:28N 45°43' W 085°15'3 6.0
2019-Aug-30 21:59N 45°45' W 085°11'2 4.7
2019-Aug-30 21:30N 45°46' W 085°09'4 7.0
2019-Aug-30 21:00N 45°50' W 085°08'2 4.8
2019-Aug-30 20:30N 45°50' W 085°04'2 4.1
2019-Aug-30 20:00N 45°49' W 085°01'2 4.0
2019-Aug-30 19:30N 45°50' W 084°58'2 3.6
2019-Aug-30 19:00N 45°50' W 084°56'1 2.8
2019-Aug-30 18:30N 45°50' W 084°54'2 3.8
2019-Aug-30 18:00N 45°49' W 084°52'1 2.9
2019-Aug-30 17:30N 45°49' W 084°50'2 3.2
2019-Aug-30 17:00N 45°49' W 084°48'2 3.6
2019-Aug-30 16:30N 45°49' W 084°45'2 3.8
2019-Aug-30 16:00N 45°49' W 084°42'2 4.0
2019-Aug-30 15:30N 45°51' W 084°40'2 4.3
2019-Aug-30 14:59N 45°53' W 084°40'2 5.2
2019-Aug-30 14:30N 45°55' W 084°40'3 5.0
2019-Aug-30 13:59N 45°58' W 084°40'3 5.0
2019-Aug-30 13:23N 46°01' W 084°39'0 0.1
2019-Aug-30 09:10N 46°01' W 084°39'0 0.0
2019-Aug-30 04:49N 46°01' W 084°39'0 0.0
2019-Aug-30 00:01N 46°01' W 084°39'0 0.0
2019-Aug-29 23:35N 46°01' W 084°39'0 0.1
2019-Aug-29 23:30N 46°01' W 084°39'0 0.0
2019-Aug-29 22:16N 46°01' W 084°39'0 1.1
2019-Aug-29 21:52N 46°01' W 084°39'1 3.8
2019-Aug-29 21:30N 45°59' W 084°40'2 4.6
2019-Aug-29 21:00N 45°57' W 084°39'2 3.8
2019-Aug-29 20:30N 45°56' W 084°37'4 7.0
2019-Aug-29 20:00N 45°54' W 084°33'4 7.1
2019-Aug-29 19:29N 45°52' W 084°29'4 7.0
2019-Aug-29 18:59N 45°50' W 084°25'3 6.9
2019-Aug-29 18:30N 45°48' W 084°21'4 7.3
2019-Aug-29 17:58N 45°45' W 084°16'3 6.9
2019-Aug-29 17:30N 45°43' W 084°13'4 7.4
2019-Aug-29 17:00N 45°41' W 084°09'12 7.6
2019-Aug-29 15:27N 45°35' W 083°55'3 7.0
2019-Aug-29 15:00N 45°33' W 083°51'3 6.3
2019-Aug-29 14:30N 45°32' W 083°47'3 6.5
2019-Aug-29 14:00N 45°31' W 083°42'3 6.3
2019-Aug-29 13:30N 45°29' W 083°38'3 6.3
2019-Aug-29 13:00N 45°28' W 083°35'3 6.3
2019-Aug-29 12:30N 45°26' W 083°30'4 7.1
2019-Aug-29 11:56N 45°24' W 083°25'  
Track history (hours):
 
Tides and Currents Weather Stations Pressure Air Temp Water Temp Dewpoint Dewpoint Depression Visibility Wind Speed Wind Dir Waves Ship Positions

Denis Sullivan (United States)

From her homeport of Discovery World in Milwaukee, the schooner offers educational day sails and private charters for people of all ages from May to September.

Ship's website: http://www.discoveryworld.org/denisSullivan.php

Owner: Discovery World Ltd., MILWAUKEE, WI. More information available from US FCC via Universal Licensing System and Coast Guard Vessel Documentation Center.

Last reported at 2019-Aug-30 22:28 UTC. Time now 2019-Dec-06 06:24 UTC.
Position N 45°43' W 085°15'.
Warning: this ship's position is months out of date.

Length 43 m; draft 2.6 m.

Type: Sailing vessel. MMSI: 338327000.

Date/timePositionNaut miles runAvg speedWind from/ knotsBaromVisibWave heightAir tempDewpointWater temp
2019-Aug-30 22:28N 45°43' W 085°15'3 6.0
2019-Aug-30 21:59N 45°45' W 085°11'2 4.7
2019-Aug-30 21:30N 45°46' W 085°09'4 7.0
2019-Aug-30 21:00N 45°50' W 085°08'2 4.8
2019-Aug-30 20:30N 45°50' W 085°04'2 4.1
2019-Aug-30 20:00N 45°49' W 085°01'2 4.0
2019-Aug-30 19:30N 45°50' W 084°58'2 3.6
2019-Aug-30 19:00N 45°50' W 084°56'1 2.8
2019-Aug-30 18:30N 45°50' W 084°54'2 3.8
2019-Aug-30 18:00N 45°49' W 084°52'1 2.9
2019-Aug-30 17:30N 45°49' W 084°50'2 3.2
2019-Aug-30 17:00N 45°49' W 084°48'2 3.6
2019-Aug-30 16:30N 45°49' W 084°45'2 3.8
2019-Aug-30 16:00N 45°49' W 084°42'2 4.0
2019-Aug-30 15:30N 45°51' W 084°40'2 4.3
2019-Aug-30 14:59N 45°53' W 084°40'2 5.2
2019-Aug-30 14:30N 45°55' W 084°40'3 5.0
2019-Aug-30 13:59N 45°58' W 084°40'3 5.0
2019-Aug-30 13:23N 46°01' W 084°39'0 0.1
2019-Aug-30 09:10N 46°01' W 084°39'0 0.0
2019-Aug-30 04:49N 46°01' W 084°39'0 0.0
2019-Aug-30 00:01N 46°01' W 084°39'0 0.0
2019-Aug-29 23:35N 46°01' W 084°39'0 0.1
2019-Aug-29 23:30N 46°01' W 084°39'0 0.0
2019-Aug-29 22:16N 46°01' W 084°39'0 1.1
2019-Aug-29 21:52N 46°01' W 084°39'1 3.8
2019-Aug-29 21:30N 45°59' W 084°40'2 4.6
2019-Aug-29 21:00N 45°57' W 084°39'2 3.8
2019-Aug-29 20:30N 45°56' W 084°37'4 7.0
2019-Aug-29 20:00N 45°54' W 084°33'4 7.1
2019-Aug-29 19:29N 45°52' W 084°29'4 7.0
2019-Aug-29 18:59N 45°50' W 084°25'3 6.9
2019-Aug-29 18:30N 45°48' W 084°21'4 7.3
2019-Aug-29 17:58N 45°45' W 084°16'3 6.9
2019-Aug-29 17:30N 45°43' W 084°13'4 7.4
2019-Aug-29 17:00N 45°41' W 084°09'12 7.6
2019-Aug-29 15:27N 45°35' W 083°55'3 7.0
2019-Aug-29 15:00N 45°33' W 083°51'3 6.3
2019-Aug-29 14:30N 45°32' W 083°47'3 6.5
2019-Aug-29 14:00N 45°31' W 083°42'3 6.3
2019-Aug-29 13:30N 45°29' W 083°38'3 6.3
2019-Aug-29 13:00N 45°28' W 083°35'3 6.3
2019-Aug-29 12:30N 45°26' W 083°30'4 7.1
2019-Aug-29 11:56N 45°24' W 083°25'  

Dump ship's entire track history